createdAt,value
2022-11-13T00:00:44.063Z,5.85
2022-11-13T00:03:30.275Z,3.88
2022-11-13T00:06:17.475Z,3.67
2022-11-13T00:09:03.759Z,3.53
2022-11-13T00:11:49.809Z,2.72
2022-11-13T00:17:21.458Z,2.03
2022-11-13T00:22:53.102Z,3.08
2022-11-13T00:25:39.313Z,3.17
2022-11-13T00:28:25.836Z,2.20
2022-11-13T00:31:14.454Z,1.35
2022-11-13T00:37:06.377Z,2.38
2022-11-13T00:39:56.981Z,3.00
2022-11-13T00:42:45.377Z,1.20
2022-11-13T00:45:31.160Z,2.33
2022-11-13T00:48:16.926Z,1.30
2022-11-13T00:51:04.318Z,1.45
2022-11-13T00:53:50.307Z,2.00
2022-11-13T00:56:35.994Z,1.67
2022-11-13T00:59:21.792Z,1.52
2022-11-13T01:02:07.869Z,3.17
2022-11-13T01:04:53.805Z,2.78
2022-11-13T01:10:25.512Z,1.48
2022-11-13T01:15:56.868Z,2.75
2022-11-13T01:18:43.636Z,3.22
2022-11-13T01:21:29.604Z,2.85
2022-11-13T01:27:01.095Z,2.13
2022-11-13T01:29:46.765Z,6.28
2022-11-13T01:32:33.716Z,1.95
2022-11-13T01:35:19.780Z,2.00
2022-11-13T01:38:05.376Z,1.27
2022-11-13T01:43:38.855Z,1.77
2022-11-13T01:46:29.230Z,3.08
2022-11-13T01:49:21.116Z,1.55
2022-11-13T01:52:11.488Z,1.90
2022-11-13T01:55:02.684Z,1.65
2022-11-13T01:57:48.880Z,1.75
2022-11-13T02:00:35.027Z,2.08
2022-11-13T02:06:06.623Z,2.57
2022-11-13T02:11:38.219Z,2.83
2022-11-13T02:14:26.725Z,2.00
2022-11-13T02:17:21.308Z,2.75
2022-11-13T02:20:08.382Z,1.40
2022-11-13T02:23:17.705Z,1.52
2022-11-13T02:26:05.493Z,2.22
2022-11-13T02:28:51.223Z,1.63
2022-11-13T02:31:37.015Z,2.97
2022-11-13T02:34:22.699Z,1.50
2022-11-13T02:37:08.371Z,3.67
2022-11-13T02:39:54.179Z,2.55
2022-11-13T02:42:39.837Z,2.05
2022-11-13T02:45:25.975Z,2.55
2022-11-13T02:48:11.795Z,2.20
2022-11-13T02:50:57.373Z,1.45
2022-11-13T02:53:43.302Z,3.55
2022-11-13T02:56:29.740Z,2.00
2022-11-13T02:59:15.370Z,2.10
2022-11-13T03:02:01.136Z,2.42
2022-11-13T03:05:14.095Z,2.55
2022-11-13T03:07:53.398Z,3.00
2022-11-13T03:10:39.083Z,4.47
2022-11-13T03:13:24.754Z,2.92
2022-11-13T03:16:14.666Z,2.03
2022-11-13T03:19:00.781Z,2.35
2022-11-13T03:21:46.494Z,1.90
2022-11-13T03:24:32.757Z,2.75
2022-11-13T03:27:18.909Z,1.52
2022-11-13T03:30:06.612Z,2.20
2022-11-13T03:32:55.943Z,2.22
2022-11-13T03:35:46.669Z,3.47
2022-11-13T03:38:34.075Z,2.33
2022-11-13T03:41:21.283Z,2.72
2022-11-13T03:44:07.279Z,2.08
2022-11-13T03:49:38.895Z,2.47
2022-11-13T03:52:24.410Z,3.10
2022-11-13T03:55:10.135Z,2.53
2022-11-13T03:57:55.951Z,3.15
2022-11-13T04:00:43.343Z,3.13
2022-11-13T04:03:29.138Z,2.08
2022-11-13T04:06:14.968Z,2.22
2022-11-13T04:09:01.068Z,2.70
2022-11-13T04:14:32.666Z,3.88
2022-11-13T04:17:18.413Z,2.42
2022-11-13T04:22:49.888Z,3.15
2022-11-13T04:25:35.626Z,3.70
2022-11-13T04:28:21.911Z,5.00
2022-11-13T04:31:08.119Z,3.28
2022-11-13T04:36:39.824Z,3.90
2022-11-13T04:39:25.957Z,3.13
2022-11-13T04:42:31.015Z,2.90
2022-11-13T04:45:21.996Z,4.30
2022-11-13T04:48:07.846Z,3.83
2022-11-13T04:50:53.535Z,3.97
2022-11-13T04:53:39.186Z,4.03
2022-11-13T04:56:24.777Z,3.53
2022-11-13T05:01:56.724Z,3.63
2022-11-13T05:04:42.826Z,3.38
2022-11-13T05:07:29.655Z,3.58
2022-11-13T05:10:15.626Z,3.78
2022-11-13T05:13:01.342Z,4.07
2022-11-13T05:18:34.563Z,3.38
2022-11-13T05:21:20.487Z,3.13
2022-11-13T05:24:06.494Z,2.78
2022-11-13T05:26:52.548Z,2.92
2022-11-13T05:29:38.583Z,2.85
2022-11-13T05:32:24.334Z,3.20
2022-11-13T05:35:10.115Z,3.17
2022-11-13T05:37:55.921Z,2.83
2022-11-13T05:43:27.465Z,3.85
2022-11-13T05:46:17.266Z,2.83
2022-11-13T05:49:03.793Z,3.72
2022-11-13T05:51:49.983Z,2.80
2022-11-13T05:57:21.633Z,3.27
2022-11-13T06:02:53.753Z,3.03
2022-11-13T06:05:39.730Z,4.00
2022-11-13T06:12:55.528Z,3.92
2022-11-13T06:15:37.684Z,2.75
2022-11-13T06:21:19.572Z,3.72
2022-11-13T06:24:07.101Z,4.00
2022-11-13T06:26:53.822Z,3.15
2022-11-13T06:29:40.032Z,3.28
2022-11-13T06:32:26.134Z,4.07
2022-11-13T06:37:57.809Z,3.40
2022-11-13T06:40:43.895Z,4.32
2022-11-13T06:43:30.648Z,3.38
2022-11-13T06:46:19.601Z,3.70
2022-11-13T06:49:05.456Z,4.75
2022-11-13T06:51:51.167Z,4.35
2022-11-13T06:54:36.923Z,6.07
2022-11-13T06:57:23.173Z,5.05
2022-11-13T07:00:11.342Z,4.75
2022-11-13T07:02:57.683Z,7.07
2022-11-13T07:08:29.976Z,8.27
2022-11-13T07:11:19.653Z,5.78
2022-11-13T07:14:05.823Z,7.38
2022-11-13T07:17:08.550Z,6.57
2022-11-13T07:19:55.627Z,6.30
2022-11-13T07:22:41.682Z,6.45
2022-11-13T07:31:01.223Z,4.70
2022-11-13T07:33:48.909Z,4.70
2022-11-13T07:36:35.026Z,5.25
2022-11-13T07:42:06.533Z,5.00
2022-11-13T07:44:54.901Z,3.55
2022-11-13T07:47:41.302Z,3.47
2022-11-13T07:53:17.684Z,5.38
2022-11-13T07:56:03.889Z,3.70
2022-11-13T07:58:50.258Z,4.25
2022-11-13T08:01:36.910Z,2.88
2022-11-13T08:04:49.345Z,3.85
2022-11-13T08:07:35.495Z,3.25
2022-11-13T08:10:21.530Z,2.95
2022-11-13T08:13:10.291Z,3.13
2022-11-13T08:15:59.234Z,4.13
2022-11-13T08:18:45.243Z,3.85
2022-11-13T08:21:31.090Z,3.53
2022-11-13T08:24:16.915Z,3.60
2022-11-13T08:27:02.917Z,2.90
2022-11-13T08:35:26.487Z,3.92
2022-11-13T08:38:15.045Z,3.33
2022-11-13T08:41:08.598Z,2.60
2022-11-13T08:43:55.460Z,4.25
2022-11-13T08:46:41.203Z,3.40
2022-11-13T08:49:26.998Z,3.05
2022-11-13T08:52:12.628Z,3.83
2022-11-13T08:54:58.785Z,5.05
2022-11-13T08:57:44.569Z,6.55
2022-11-13T09:03:16.832Z,5.65
2022-11-13T09:06:09.123Z,4.55
2022-11-13T09:08:55.137Z,5.60
2022-11-13T09:11:40.905Z,4.40
2022-11-13T09:14:28.172Z,4.72
2022-11-13T09:17:14.303Z,4.22
2022-11-13T09:20:03.909Z,5.13
2022-11-13T09:23:03.410Z,4.28
2022-11-13T09:25:49.219Z,3.10
2022-11-13T09:28:35.530Z,4.57
2022-11-13T09:31:21.403Z,2.95
2022-11-13T09:34:08.702Z,3.03
2022-11-13T09:36:54.723Z,3.03
2022-11-13T09:39:40.613Z,3.35
2022-11-13T09:42:29.365Z,3.55
2022-11-13T09:45:15.881Z,4.18
2022-11-13T09:48:20.360Z,2.53
2022-11-13T09:51:16.602Z,3.38
2022-11-13T09:54:09.856Z,3.65
2022-11-13T09:57:10.543Z,3.45
2022-11-13T10:00:08.808Z,3.58
2022-11-13T10:03:20.365Z,5.15
2022-11-13T10:06:25.717Z,4.40
2022-11-13T10:09:32.545Z,4.20
2022-11-13T10:12:20.802Z,4.82
2022-11-13T10:15:10.236Z,4.85
2022-11-13T10:18:18.377Z,3.97
2022-11-13T10:21:42.351Z,4.03
2022-11-13T10:24:34.255Z,3.97
2022-11-13T10:27:20.155Z,6.57
2022-11-13T10:33:04.789Z,4.30
2022-11-13T10:36:17.687Z,4.15
2022-11-13T10:39:07.155Z,4.60
2022-11-13T10:41:54.985Z,4.15
2022-11-13T10:44:41.190Z,4.05
2022-11-13T10:48:01.971Z,3.60
2022-11-13T10:50:37.857Z,6.25
2022-11-13T10:53:26.576Z,4.88
2022-11-13T10:56:32.367Z,5.05
2022-11-13T10:59:19.640Z,5.15
2022-11-13T11:02:26.575Z,5.85
2022-11-13T11:05:24.971Z,5.75
2022-11-13T11:08:11.491Z,7.15
2022-11-13T11:11:36.685Z,6.85
2022-11-13T11:14:34.145Z,6.30
2022-11-13T11:17:25.390Z,5.95
2022-11-13T11:20:33.509Z,6.20
2022-11-13T11:23:41.621Z,6.07
2022-11-13T11:26:34.027Z,4.97
2022-11-13T11:29:28.363Z,6.80
2022-11-13T11:32:31.357Z,6.32
2022-11-13T11:35:29.735Z,6.65
2022-11-13T11:38:40.153Z,7.63
2022-11-13T11:41:36.683Z,6.53
2022-11-13T11:44:40.684Z,7.15
2022-11-13T11:47:27.898Z,7.20
2022-11-13T11:50:16.379Z,7.35
2022-11-13T11:53:05.088Z,6.65
2022-11-13T11:56:38.444Z,7.38
2022-11-13T11:59:47.478Z,7.22
2022-11-13T12:03:01.985Z,6.53
2022-11-13T12:06:29.224Z,7.05
2022-11-13T12:10:02.464Z,11.80
2022-11-13T12:13:18.529Z,7.28
2022-11-13T12:16:34.319Z,7.32
2022-11-13T12:19:56.673Z,7.00
2022-11-13T12:23:02.463Z,7.90
2022-11-13T12:25:54.662Z,7.13
2022-11-13T12:28:51.100Z,7.65
2022-11-13T12:31:42.947Z,7.40
2022-11-13T12:34:55.552Z,6.65
2022-11-13T12:37:46.583Z,7.43
2022-11-13T12:40:42.880Z,7.68
2022-11-13T12:43:50.276Z,7.40
2022-11-13T12:46:40.182Z,8.32
2022-11-13T12:49:28.340Z,8.15
2022-11-13T12:52:22.954Z,7.93
2022-11-13T12:55:26.553Z,7.85
2022-11-13T12:58:26.286Z,7.03
2022-11-13T13:01:12.351Z,9.43
2022-11-13T13:07:04.517Z,9.57
2022-11-13T13:12:55.034Z,8.52
2022-11-13T13:15:56.812Z,7.57
2022-11-13T13:18:42.823Z,8.27
2022-11-13T13:21:43.300Z,7.88
2022-11-13T13:24:37.507Z,8.32
2022-11-13T13:27:28.335Z,7.63
2022-11-13T13:30:23.061Z,7.53
2022-11-13T13:33:40.844Z,7.65
2022-11-13T13:36:43.225Z,8.02
2022-11-13T13:40:11.027Z,9.77
2022-11-13T13:43:21.063Z,8.00
2022-11-13T13:46:15.694Z,9.10
2022-11-13T13:49:18.097Z,8.70
2022-11-13T13:52:15.678Z,10.82
2022-11-13T13:55:04.585Z,8.85
2022-11-13T13:57:50.786Z,8.07
2022-11-13T14:00:53.292Z,7.90
2022-11-13T14:03:43.449Z,8.32
2022-11-13T14:06:29.548Z,8.38
2022-11-13T14:09:24.961Z,7.97
2022-11-13T14:12:21.879Z,8.53
2022-11-13T14:15:21.308Z,8.73
2022-11-13T14:21:00.250Z,10.13
2022-11-13T14:23:51.869Z,8.80
2022-11-13T14:26:38.321Z,10.45
2022-11-13T14:29:34.257Z,10.00
2022-11-13T14:32:23.889Z,8.98
2022-11-13T14:35:24.559Z,9.45
2022-11-13T14:38:33.509Z,10.32
2022-11-13T14:41:33.717Z,9.90
2022-11-13T14:44:31.984Z,10.15
2022-11-13T14:47:24.794Z,10.18
2022-11-13T14:50:22.074Z,10.55
2022-11-13T14:53:10.372Z,10.68
2022-11-13T14:56:02.409Z,11.80
2022-11-13T14:58:48.346Z,11.80
2022-11-13T15:01:34.932Z,11.88
2022-11-13T15:04:21.028Z,11.60
2022-11-13T15:07:30.025Z,12.25
2022-11-13T15:10:18.940Z,12.88
2022-11-13T15:16:29.288Z,12.73
2022-11-13T15:19:37.109Z,13.48
2022-11-13T15:22:28.440Z,13.65
2022-11-13T15:25:16.817Z,14.82
2022-11-13T15:28:04.211Z,13.38
2022-11-13T15:30:57.901Z,14.27
2022-11-13T15:33:43.715Z,13.75
2022-11-13T15:36:29.464Z,13.55
2022-11-13T15:42:16.115Z,14.18
2022-11-13T15:45:03.246Z,16.70
2022-11-13T15:47:49.505Z,15.27
2022-11-13T15:53:21.068Z,21.30
2022-11-13T15:58:55.918Z,22.33
2022-11-13T16:01:42.356Z,19.40
2022-11-13T16:04:50.464Z,17.65
2022-11-13T16:07:34.709Z,18.80
2022-11-13T16:10:25.117Z,15.88
2022-11-13T16:13:12.434Z,16.15
2022-11-13T16:16:01.550Z,16.23
2022-11-13T16:18:47.459Z,15.57
2022-11-13T16:21:33.304Z,18.42
2022-11-13T16:24:22.938Z,15.55
2022-11-13T16:27:16.635Z,18.30
2022-11-13T16:30:06.820Z,17.42
2022-11-13T16:32:54.261Z,17.10
2022-11-13T16:36:11.600Z,26.88
2022-11-13T16:38:57.774Z,23.10
2022-11-13T16:41:46.541Z,25.45
2022-11-13T16:44:32.618Z,33.20
2022-11-13T16:47:24.455Z,33.25
2022-11-13T16:50:17.903Z,29.92
2022-11-13T16:53:04.096Z,26.25
2022-11-13T16:58:35.737Z,26.30
2022-11-13T17:04:13.215Z,22.88
2022-11-13T17:06:59.198Z,22.20
2022-11-13T17:12:31.789Z,18.95
2022-11-13T17:15:18.899Z,21.50
2022-11-13T17:18:04.848Z,19.30
2022-11-13T17:20:51.071Z,22.05
2022-11-13T17:23:37.567Z,20.27
2022-11-13T17:26:24.032Z,18.17
2022-11-13T17:29:10.086Z,18.35
2022-11-13T17:31:55.993Z,16.25
2022-11-13T17:34:43.404Z,18.20
2022-11-13T17:37:29.632Z,17.92
2022-11-13T17:40:15.769Z,18.10
2022-11-13T17:43:02.131Z,16.50
2022-11-13T17:45:55.629Z,18.13
2022-11-13T17:48:43.321Z,17.30
2022-11-13T17:51:29.879Z,16.38
2022-11-13T17:54:16.006Z,17.67
2022-11-13T17:57:02.357Z,17.15
2022-11-13T17:59:48.324Z,17.42
2022-11-13T18:05:20.158Z,16.60
2022-11-13T18:11:29.870Z,16.42
2022-11-13T18:14:15.855Z,16.50
2022-11-13T18:17:02.254Z,17.52
2022-11-13T18:22:34.135Z,18.33
2022-11-13T18:28:06.130Z,16.50
2022-11-13T18:30:56.529Z,18.02
2022-11-13T18:33:42.991Z,15.95
2022-11-13T18:39:16.929Z,16.45
2022-11-13T18:42:03.103Z,16.80
2022-11-13T18:44:49.292Z,15.20
2022-11-13T18:48:07.064Z,16.27
2022-11-13T18:51:00.017Z,15.10
2022-11-13T18:53:48.975Z,14.50
2022-11-13T18:56:35.202Z,17.58
2022-11-13T18:59:21.388Z,16.13
2022-11-13T19:04:55.221Z,15.80
2022-11-13T19:07:41.290Z,17.27
2022-11-13T19:10:27.526Z,15.73
2022-11-13T19:13:13.742Z,15.57
2022-11-13T19:16:05.025Z,17.70
2022-11-13T19:18:53.812Z,17.80
2022-11-13T19:21:40.802Z,16.60
2022-11-13T19:24:27.152Z,17.52
2022-11-13T19:27:13.400Z,15.32
2022-11-13T19:29:59.176Z,17.15
2022-11-13T19:35:30.769Z,16.77
2022-11-13T19:38:17.174Z,18.23
2022-11-13T19:41:04.541Z,17.70
2022-11-13T19:43:50.788Z,16.23
2022-11-13T19:46:36.834Z,17.33
2022-11-13T19:52:08.495Z,18.70
2022-11-13T19:57:45.087Z,20.02
2022-11-13T20:00:32.292Z,21.40
2022-11-13T20:03:18.274Z,20.23
2022-11-13T20:06:05.461Z,23.92
2022-11-13T20:08:51.334Z,23.98
2022-11-13T20:14:22.979Z,24.88
2022-11-13T20:19:54.673Z,24.25
2022-11-13T20:25:29.986Z,22.40
2022-11-13T20:28:16.068Z,23.60
2022-11-13T20:31:08.604Z,23.73
2022-11-13T20:34:01.126Z,24.50
2022-11-13T20:36:47.439Z,22.13
2022-11-13T20:39:34.509Z,21.42
2022-11-13T20:42:21.560Z,24.30
2022-11-13T20:45:08.112Z,23.50
2022-11-13T20:47:54.330Z,23.05
2022-11-13T20:53:26.063Z,24.27
2022-11-13T20:56:14.534Z,25.45
2022-11-13T20:59:00.821Z,24.48
2022-11-13T21:01:46.744Z,25.23
2022-11-13T21:07:18.777Z,24.03
2022-11-13T21:10:06.199Z,22.75
2022-11-13T21:12:52.522Z,23.83
2022-11-13T21:18:25.092Z,24.40
2022-11-13T21:21:13.979Z,23.83
2022-11-13T21:24:00.129Z,23.42
2022-11-13T21:26:49.459Z,23.95
2022-11-13T21:29:35.295Z,26.88
2022-11-13T21:32:21.104Z,24.48
2022-11-13T21:37:58.699Z,26.03
2022-11-13T21:41:04.651Z,26.17
2022-11-13T21:44:03.280Z,25.90
2022-11-13T21:46:49.201Z,24.73
2022-11-13T21:49:35.416Z,26.02
2022-11-13T21:55:07.680Z,26.67
2022-11-13T21:57:54.289Z,26.13
2022-11-13T22:00:40.486Z,25.92
2022-11-13T22:09:13.077Z,25.63
2022-11-13T22:11:59.302Z,26.20
2022-11-13T22:14:45.508Z,28.13
2022-11-13T22:20:17.512Z,27.80
2022-11-13T22:23:05.587Z,25.25
2022-11-13T22:25:55.752Z,26.35
2022-11-13T22:28:45.596Z,27.90
2022-11-13T22:31:32.846Z,24.48
2022-11-13T22:34:19.005Z,24.33
2022-11-13T22:37:04.770Z,23.08
2022-11-13T22:39:58.727Z,23.70
2022-11-13T22:42:44.793Z,24.63
2022-11-13T22:48:16.488Z,24.35
2022-11-13T22:53:55.093Z,22.27
2022-11-13T22:56:41.965Z,22.15
2022-11-13T22:59:28.031Z,23.23
2022-11-13T23:04:59.672Z,22.90
2022-11-13T23:07:45.569Z,20.90
2022-11-13T23:10:31.698Z,20.95
2022-11-13T23:16:03.271Z,20.65
2022-11-13T23:18:49.864Z,21.20
2022-11-13T23:21:35.978Z,20.02
2022-11-13T23:24:23.435Z,20.17
2022-11-13T23:27:09.325Z,19.73
2022-11-13T23:29:55.639Z,20.67
2022-11-13T23:35:27.624Z,18.90
2022-11-13T23:38:14.090Z,18.65
2022-11-13T23:41:01.301Z,18.50
2022-11-13T23:44:07.691Z,18.92
2022-11-13T23:46:53.009Z,19.55
2022-11-13T23:49:38.909Z,19.33
2022-11-13T23:52:25.154Z,17.42
2022-11-13T23:55:11.501Z,17.67
2022-11-13T23:58:02.935Z,17.35
